createdAt,value
2023-01-10T00:05:04.320Z,6.3
2023-01-10T00:10:36.168Z,6.01
2023-01-10T00:16:07.850Z,6.02
2023-01-10T00:21:39.700Z,6.09
2023-01-10T00:27:11.310Z,6.16
2023-01-10T00:32:49.203Z,6.12
2023-01-10T00:38:21.268Z,6.04
2023-01-10T00:43:52.848Z,6.08
2023-01-10T00:49:24.697Z,6.2
2023-01-10T00:54:56.083Z,6.1
2023-01-10T01:00:28.349Z,6.18
2023-01-10T01:05:59.629Z,6.06
2023-01-10T01:11:31.460Z,6.05
2023-01-10T01:17:02.983Z,6.04
2023-01-10T01:22:34.863Z,6.13
2023-01-10T01:28:06.585Z,6.05
2023-01-10T01:33:42.507Z,5.91
2023-01-10T01:39:14.390Z,5.79
2023-01-10T01:44:46.085Z,5.9
2023-01-10T01:50:17.852Z,5.98
2023-01-10T01:55:49.420Z,5.9
2023-01-10T02:01:21.346Z,5.92
2023-01-10T02:06:53.368Z,5.94
2023-01-10T02:12:24.571Z,5.68
2023-01-10T02:17:56.459Z,5.58
2023-01-10T02:23:28.180Z,5.58
2023-01-10T02:28:59.714Z,5.43
2023-01-10T02:34:37.831Z,5.48
2023-01-10T02:40:09.579Z,5.4
2023-01-10T02:45:41.315Z,5.42
2023-01-10T02:51:13.134Z,5.39
2023-01-10T02:56:44.994Z,5.12
2023-01-10T03:02:16.779Z,5.11
2023-01-10T03:07:48.273Z,5.09
2023-01-10T03:13:20.064Z,5.13
2023-01-10T03:18:51.813Z,5.12
2023-01-10T03:24:23.387Z,5.12
2023-01-10T03:29:55.087Z,5.22
2023-01-10T03:35:33.333Z,5.17
2023-01-10T03:41:04.872Z,5.42
2023-01-10T03:46:37.046Z,5.32
2023-01-10T03:52:08.509Z,5.41
2023-01-10T03:57:40.049Z,5.54
2023-01-10T04:03:11.910Z,5.5
2023-01-10T04:08:43.655Z,5.47
2023-01-10T04:14:15.377Z,5.51
2023-01-10T04:19:47.173Z,5.2
2023-01-10T04:25:18.658Z,5.32
2023-01-10T04:30:50.603Z,5.32
2023-01-10T04:36:26.655Z,5.12
2023-01-10T04:41:58.194Z,5.08
2023-01-10T04:47:29.967Z,5.11
2023-01-10T04:53:01.656Z,5.15
2023-01-10T04:58:33.570Z,5.16
2023-01-10T05:04:05.130Z,5.11
2023-01-10T05:09:37.254Z,5.14
2023-01-10T05:15:08.593Z,5.32
2023-01-10T05:20:40.492Z,5.33
2023-01-10T05:26:12.009Z,5.38
2023-01-10T05:31:43.963Z,5.43
2023-01-10T05:37:19.999Z,5.44
2023-01-10T05:42:51.719Z,5.46
2023-01-10T05:48:23.492Z,5.28
2023-01-10T05:53:55.025Z,5.56
2023-01-10T05:59:28.509Z,5.54
2023-01-10T06:04:59.345Z,5.53
2023-01-10T06:10:30.167Z,5.2
2023-01-10T06:16:01.919Z,5.25
2023-01-10T06:21:33.987Z,5.34
2023-01-10T06:27:05.489Z,5.3
2023-01-10T06:32:37.054Z,5.36
2023-01-10T06:38:13.160Z,5.3
2023-01-10T06:43:45.057Z,5.5
2023-01-10T06:49:16.587Z,5.56
2023-01-10T06:54:48.504Z,5.51
2023-01-10T07:00:20.037Z,5.53
2023-01-10T07:05:51.741Z,5.56
2023-01-10T07:11:23.515Z,5.55
2023-01-10T07:16:55.415Z,5.61
2023-01-10T07:22:27.142Z,5.62
2023-01-10T07:27:58.661Z,5.69
2023-01-10T07:33:30.441Z,5.71
2023-01-10T07:39:08.510Z,5.76
2023-01-10T07:44:40.397Z,5.67
2023-01-10T07:50:11.976Z,5.65
2023-01-10T07:55:43.810Z,5.95
2023-01-10T08:01:15.494Z,5.87
2023-01-10T08:06:47.120Z,5.77
2023-01-10T08:12:19.084Z,5.78
2023-01-10T08:17:50.561Z,6.05
2023-01-10T08:23:22.537Z,6.04
2023-01-10T08:28:53.995Z,5.96
2023-01-10T08:34:25.798Z,5.96
2023-01-10T08:40:01.817Z,6.03
2023-01-10T08:45:33.544Z,6.12
2023-01-10T08:51:05.266Z,6.3
2023-01-10T08:56:37.223Z,6.16
2023-01-10T09:02:08.812Z,6.31
2023-01-10T09:07:40.470Z,6.51
2023-01-10T09:13:12.206Z,6.44
2023-01-10T09:18:43.865Z,6.56
2023-01-10T09:24:15.824Z,6.63
2023-01-10T09:29:49.116Z,6.67
2023-01-10T09:35:19.187Z,6.74
2023-01-10T09:40:57.839Z,6.66
2023-01-10T09:46:29.048Z,6.79
2023-01-10T09:52:00.609Z,7.04
2023-01-10T09:57:32.393Z,6.98
2023-01-10T10:03:04.502Z,6.97
2023-01-10T10:08:35.814Z,6.67
2023-01-10T10:14:07.771Z,6.58
2023-01-10T10:19:39.240Z,6.47
2023-01-10T10:25:11.146Z,6.57
2023-01-10T10:30:43.388Z,6.83
2023-01-10T10:36:14.652Z,7.01
2023-01-10T10:41:50.758Z,7.13
2023-01-10T10:47:22.594Z,7.05
2023-01-10T10:52:53.941Z,7.02
2023-01-10T10:58:26.248Z,7.27
2023-01-10T11:03:57.354Z,7.14
2023-01-10T11:09:29.093Z,7.08
2023-01-10T11:15:00.827Z,7.27
2023-01-10T11:20:32.801Z,7.59
2023-01-10T11:26:04.667Z,7.62
2023-01-10T11:31:36.020Z,7.67
2023-01-10T11:37:07.852Z,7.87
2023-01-10T11:42:44.125Z,7.57
2023-01-10T11:48:16.786Z,7.49
2023-01-10T11:53:47.275Z,7.66
2023-01-10T11:59:19.314Z,7.61
2023-01-10T12:04:50.787Z,7.5
2023-01-10T12:10:22.712Z,7.66
2023-01-10T12:15:54.397Z,8.01
2023-01-10T12:21:25.918Z,8.38
2023-01-10T12:26:57.795Z,7.99
2023-01-10T12:32:29.681Z,8.16
2023-01-10T12:38:01.329Z,8.33
2023-01-10T12:43:39.186Z,8.12
2023-01-10T12:49:10.933Z,7.75
2023-01-10T12:54:43.114Z,7.79
2023-01-10T13:00:15.058Z,7.91
2023-01-10T13:05:46.375Z,7.87
2023-01-10T13:11:18.147Z,7.96
2023-01-10T13:16:50.108Z,7.86
2023-01-10T13:22:21.420Z,7.83
2023-01-10T13:27:52.910Z,7.86
2023-01-10T13:33:25.234Z,7.84
2023-01-10T13:38:56.581Z,7.82
2023-01-10T13:44:32.594Z,7.87
2023-01-10T13:50:05.160Z,8.05
2023-01-10T13:55:35.913Z,7.99
2023-01-10T14:01:07.783Z,7.99
2023-01-10T14:06:39.363Z,8.17
2023-01-10T14:12:11.691Z,8.06
2023-01-10T14:17:42.908Z,8.21
2023-01-10T14:23:14.643Z,8.17
2023-01-10T14:28:47.744Z,8.21
2023-01-10T14:34:18.095Z,8.0
2023-01-10T14:39:49.868Z,7.88
2023-01-10T14:45:28.285Z,7.84
2023-01-10T14:50:59.957Z,7.63
2023-01-10T14:56:31.388Z,7.65
2023-01-10T15:02:03.179Z,7.47
2023-01-10T15:07:35.081Z,7.57
2023-01-10T15:13:06.595Z,7.74
2023-01-10T15:18:38.553Z,7.57
2023-01-10T15:24:10.979Z,7.49
2023-01-10T15:29:43.806Z,7.34
2023-01-10T15:35:18.131Z,7.55
2023-01-10T15:40:45.984Z,7.44
2023-01-10T15:46:22.133Z,7.64
2023-01-10T15:51:54.067Z,7.32
2023-01-10T15:57:25.596Z,6.99
2023-01-10T16:02:57.648Z,7.14
2023-01-10T16:08:29.011Z,7.09
2023-01-10T16:14:01.020Z,6.78
2023-01-10T16:19:33.144Z,6.92
2023-01-10T16:25:04.232Z,7.05
2023-01-10T16:30:35.945Z,7.04
2023-01-10T16:36:07.788Z,7.17
2023-01-10T16:41:39.405Z,7.09
2023-01-10T16:47:17.731Z,7.18
2023-01-10T16:52:49.209Z,6.84
2023-01-10T16:58:20.971Z,6.72
2023-01-10T17:03:52.855Z,6.64
2023-01-10T17:09:24.649Z,6.78
2023-01-10T17:14:56.120Z,6.61
2023-01-10T17:20:28.586Z,6.49
2023-01-10T17:25:59.919Z,6.6
2023-01-10T17:31:31.329Z,6.74
2023-01-10T17:37:03.266Z,6.68
2023-01-10T17:42:34.941Z,6.59
2023-01-10T17:48:12.880Z,6.6
2023-01-10T17:53:45.019Z,6.77
2023-01-10T17:59:16.618Z,6.67
2023-01-10T18:04:48.432Z,6.52
2023-01-10T18:10:19.776Z,6.72
2023-01-10T18:15:51.632Z,6.55
2023-01-10T18:21:23.444Z,6.64
2023-01-10T18:26:55.051Z,6.6
2023-01-10T18:32:27.409Z,6.63
2023-01-10T18:37:58.347Z,6.63
2023-01-10T18:43:30.167Z,6.58
2023-01-10T18:49:06.262Z,6.54
2023-01-10T18:54:38.106Z,6.66
2023-01-10T19:00:09.786Z,6.67
2023-01-10T19:05:41.532Z,6.66
2023-01-10T19:11:15.074Z,6.62
2023-01-10T19:16:44.948Z,6.69
2023-01-10T19:22:16.571Z,6.78
2023-01-10T19:27:48.514Z,6.53
2023-01-10T19:33:20.241Z,6.79
2023-01-10T19:38:52.028Z,6.95
2023-01-10T19:44:23.575Z,6.87
2023-01-10T19:49:59.789Z,6.84
2023-01-10T19:55:31.339Z,6.82
2023-01-10T20:01:03.081Z,6.94
2023-01-10T20:06:34.952Z,6.77
2023-01-10T20:12:06.741Z,6.82
2023-01-10T20:17:38.470Z,6.8
2023-01-10T20:23:10.427Z,6.79
2023-01-10T20:28:41.973Z,6.8
2023-01-10T20:34:13.685Z,6.85
2023-01-10T20:39:45.569Z,6.78
2023-01-10T20:45:17.137Z,6.92
2023-01-10T20:50:53.283Z,6.82
2023-01-10T20:56:24.976Z,7.14
2023-01-10T21:01:56.707Z,7.01
2023-01-10T21:07:28.578Z,7.02
2023-01-10T21:13:00.240Z,7.06
2023-01-10T21:18:31.965Z,7.03
2023-01-10T21:24:04.130Z,7.09
2023-01-10T21:29:35.618Z,6.89
2023-01-10T21:35:07.206Z,6.91
2023-01-10T21:40:38.947Z,7.09
2023-01-10T21:46:10.845Z,6.95
2023-01-10T21:51:46.791Z,7.04
2023-01-10T21:57:18.519Z,7.05
2023-01-10T22:02:50.443Z,6.99
2023-01-10T22:08:22.276Z,7.16
2023-01-10T22:13:53.946Z,7.16
2023-01-10T22:19:25.505Z,6.95
2023-01-10T22:24:57.469Z,7.22
2023-01-10T22:30:28.964Z,7.09
2023-01-10T22:36:01.515Z,7.31
2023-01-10T22:41:32.573Z,7.18
2023-01-10T22:47:04.365Z,7.36
2023-01-10T22:52:40.242Z,7.31
2023-01-10T22:58:12.144Z,7.37
2023-01-10T23:03:43.758Z,7.27
2023-01-10T23:09:15.690Z,7.6
2023-01-10T23:14:47.189Z,7.62
2023-01-10T23:20:19.192Z,7.69
2023-01-10T23:25:50.896Z,7.66
2023-01-10T23:31:22.649Z,7.5
2023-01-10T23:36:54.235Z,7.55
2023-01-10T23:42:25.755Z,7.66
2023-01-10T23:47:57.583Z,7.6
2023-01-10T23:53:35.667Z,7.46
2023-01-10T23:59:07.306Z,7.76
